Rowe, Massachusetts
Current Conditions -  °F | °C
As of 5:52 AM on Friday 24 Oct 2014 (Local Time) from KAQW Reporting Station
Light Rain Light Rain  
Wind Chill: 39°   Ceiling: 1100
Heat Index: 44°   Visibility: 8mi
Dew Point: 41°   Wind: 10mph
Humidity: 89%   Direction: 250°WSW
Pressure: 29.8"   Gusts: NA
Location:  42.69°N, 72.9°W
Report Text: KAQW 240952Z AUTO 25009KT 8SM -RA OVC011 07/05 A2980 RMK AO2 SLP096 P0002 T00670050
Loading
Personal Weather Stations






























Interactive Weather Map
Tropical Storm Tracking
New forecast layout! Learn more

10-Day Weather Forecast

Advertisements
Track Severe Weather on mobile